createdAt,value
2022-07-28T00:01:25.674Z,20.08
2022-07-28T00:03:52.858Z,20.01
2022-07-28T00:06:19.706Z,19.97
2022-07-28T00:08:46.432Z,19.96
2022-07-28T00:11:13.378Z,19.91
2022-07-28T00:13:40.138Z,19.84
2022-07-28T00:16:07.599Z,19.78
2022-07-28T00:18:34.286Z,19.79
2022-07-28T00:21:02.324Z,19.76
2022-07-28T00:23:38.699Z,19.73
2022-07-28T00:26:06.883Z,19.75
2022-07-28T00:28:33.554Z,19.74
2022-07-28T00:31:05.697Z,19.73
2022-07-28T00:33:33.612Z,19.68
2022-07-28T00:36:00.304Z,19.67
2022-07-28T00:38:27.133Z,19.65
2022-07-28T00:41:11.934Z,19.69
2022-07-28T00:43:50.287Z,19.75
2022-07-28T00:46:19.787Z,19.66
2022-07-28T00:48:50.670Z,19.56
2022-07-28T00:51:18.771Z,19.53
2022-07-28T00:53:46.110Z,19.50
2022-07-28T00:56:13.991Z,19.43
2022-07-28T00:58:40.913Z,19.35
2022-07-28T01:01:09.872Z,19.35
2022-07-28T01:03:39.929Z,19.35
2022-07-28T01:06:21.882Z,19.32
2022-07-28T01:08:57.330Z,19.23
2022-07-28T01:11:43.098Z,19.22
2022-07-28T01:14:37.520Z,19.27
2022-07-28T01:17:24.550Z,19.24
2022-07-28T01:19:58.938Z,19.23
2022-07-28T01:22:30.143Z,19.17
2022-07-28T01:25:07.626Z,19.20
2022-07-28T01:27:46.642Z,19.10
2022-07-28T01:30:22.135Z,19.02
2022-07-28T01:33:24.596Z,18.96
2022-07-28T01:35:59.216Z,18.93
2022-07-28T01:38:26.622Z,18.93
2022-07-28T01:40:54.760Z,18.91
2022-07-28T01:43:26.354Z,18.89
2022-07-28T01:45:55.209Z,18.86
2022-07-28T01:48:23.859Z,18.83
2022-07-28T01:50:52.359Z,18.80
2022-07-28T01:53:19.258Z,18.78
2022-07-28T01:55:46.682Z,18.78
2022-07-28T01:58:14.368Z,18.78
2022-07-28T02:00:42.844Z,18.74
2022-07-28T02:03:11.743Z,18.70
2022-07-28T02:05:40.778Z,18.70
2022-07-28T02:08:08.451Z,18.69
2022-07-28T02:10:35.990Z,18.65
2022-07-28T02:13:03.111Z,18.65
2022-07-28T02:15:30.625Z,18.62
2022-07-28T02:17:57.845Z,18.60
2022-07-28T02:20:25.250Z,18.56
2022-07-28T02:22:53.317Z,18.51
2022-07-28T02:25:21.080Z,18.51
2022-07-28T02:28:02.677Z,18.49
2022-07-28T02:30:41.155Z,18.58
2022-07-28T02:33:12.378Z,18.61
2022-07-28T02:35:54.064Z,18.57
2022-07-28T02:38:30.895Z,18.62
2022-07-28T02:41:01.021Z,18.58
2022-07-28T02:43:49.202Z,18.56
2022-07-28T02:46:19.351Z,18.58
2022-07-28T02:48:47.974Z,18.57
2022-07-28T02:51:15.075Z,18.60
2022-07-28T02:53:42.522Z,18.57
2022-07-28T02:56:10.261Z,18.56
2022-07-28T02:58:37.705Z,18.56
2022-07-28T03:01:04.702Z,18.55
2022-07-28T03:03:33.742Z,18.51
2022-07-28T03:06:00.644Z,18.52
2022-07-28T03:08:27.361Z,18.57
2022-07-28T03:11:08.409Z,18.53
2022-07-28T03:13:35.206Z,18.51
2022-07-28T03:16:02.419Z,18.48
2022-07-28T03:18:29.209Z,18.46
2022-07-28T03:20:56.633Z,18.53
2022-07-28T03:23:30.804Z,18.54
2022-07-28T03:26:01.390Z,18.51
2022-07-28T03:28:29.035Z,18.41
2022-07-28T03:31:02.308Z,18.36
2022-07-28T03:33:29.439Z,18.36
2022-07-28T03:35:58.630Z,18.31
2022-07-28T03:38:28.424Z,18.29
2022-07-28T03:40:56.678Z,18.26
2022-07-28T03:43:25.602Z,18.34
2022-07-28T03:45:52.501Z,18.28
2022-07-28T03:48:21.677Z,18.28
2022-07-28T03:50:48.503Z,18.36
2022-07-28T03:53:27.013Z,18.25
2022-07-28T03:55:54.091Z,18.20
2022-07-28T03:58:28.609Z,18.11
2022-07-28T04:00:57.225Z,18.12
2022-07-28T04:03:36.515Z,18.04
2022-07-28T04:06:15.161Z,18.04
2022-07-28T04:08:42.886Z,18.01
2022-07-28T04:11:09.597Z,18.02
2022-07-28T04:13:37.265Z,18.03
2022-07-28T04:16:05.097Z,18.02
2022-07-28T04:18:31.789Z,18.00
2022-07-28T04:20:58.639Z,18.01
2022-07-28T04:23:25.574Z,18.00
2022-07-28T04:25:52.242Z,17.98
2022-07-28T04:28:19.078Z,17.92
2022-07-28T04:30:45.962Z,17.88
2022-07-28T04:33:13.313Z,17.88
2022-07-28T04:35:40.461Z,17.87
2022-07-28T04:38:07.761Z,17.90
2022-07-28T04:40:34.589Z,17.87
2022-07-28T04:43:01.598Z,17.84
2022-07-28T04:45:28.322Z,17.79
2022-07-28T04:47:55.064Z,17.81
2022-07-28T04:50:22.174Z,17.89
2022-07-28T04:52:57.637Z,17.91
2022-07-28T04:55:24.669Z,17.84
2022-07-28T04:57:51.408Z,17.84
2022-07-28T05:00:18.819Z,17.88
2022-07-28T05:02:46.322Z,17.97
2022-07-28T05:05:13.367Z,18.04
2022-07-28T05:07:40.998Z,18.00
2022-07-28T05:10:10.294Z,18.05
2022-07-28T05:12:37.001Z,18.08
2022-07-28T05:15:05.432Z,18.08
2022-07-28T05:17:32.107Z,18.19
2022-07-28T05:19:59.061Z,18.25
2022-07-28T05:22:27.100Z,18.28
2022-07-28T05:24:54.367Z,18.35
2022-07-28T05:27:21.226Z,18.42
2022-07-28T05:29:48.198Z,18.46
2022-07-28T05:32:17.277Z,18.46
2022-07-28T05:34:45.964Z,18.46
2022-07-28T05:37:12.906Z,18.48
2022-07-28T05:39:39.819Z,18.49
2022-07-28T05:42:07.076Z,18.52
2022-07-28T05:44:38.182Z,18.55
2022-07-28T05:47:06.038Z,18.58
2022-07-28T05:49:33.106Z,18.63
2022-07-28T05:51:59.931Z,18.69
2022-07-28T05:54:26.646Z,18.76
2022-07-28T05:56:53.586Z,18.85
2022-07-28T05:59:20.350Z,18.95
2022-07-28T06:01:47.108Z,19.04
2022-07-28T06:04:25.824Z,19.11
2022-07-28T06:06:54.558Z,19.19
2022-07-28T06:09:21.468Z,19.28
2022-07-28T06:11:50.509Z,19.38
2022-07-28T06:14:18.902Z,19.47
2022-07-28T06:16:50.861Z,19.53
2022-07-28T06:19:18.251Z,19.56
2022-07-28T06:21:45.127Z,19.58
2022-07-28T06:24:12.332Z,19.61
2022-07-28T06:26:44.290Z,19.65
2022-07-28T06:29:12.953Z,19.70
2022-07-28T06:31:40.090Z,19.75
2022-07-28T06:34:07.292Z,19.79
2022-07-28T06:36:34.248Z,19.81
2022-07-28T06:39:01.056Z,19.85
2022-07-28T06:41:28.041Z,19.88
2022-07-28T06:43:54.739Z,19.93
2022-07-28T06:46:22.274Z,19.98
2022-07-28T06:48:49.248Z,20.02
2022-07-28T06:51:19.184Z,20.03
2022-07-28T06:53:48.381Z,20.11
2022-07-28T06:56:15.605Z,20.17
2022-07-28T06:58:46.855Z,20.24
2022-07-28T07:01:15.370Z,20.18
2022-07-28T07:03:43.083Z,20.12
2022-07-28T07:06:11.032Z,20.17
2022-07-28T07:08:38.465Z,20.25
2022-07-28T07:11:05.414Z,20.23
2022-07-28T07:13:33.143Z,20.24
2022-07-28T07:16:00.175Z,20.25
2022-07-28T07:18:26.974Z,20.27
2022-07-28T07:20:54.734Z,20.39
2022-07-28T07:23:21.585Z,20.51
2022-07-28T07:25:48.506Z,20.63
2022-07-28T07:28:15.279Z,20.72
2022-07-28T07:30:42.096Z,20.78
2022-07-28T07:33:09.700Z,20.81
2022-07-28T07:35:38.028Z,20.88
2022-07-28T07:38:05.007Z,20.97
2022-07-28T07:40:32.258Z,21.04
2022-07-28T07:42:59.123Z,21.10
2022-07-28T07:45:26.382Z,21.16
2022-07-28T07:47:53.021Z,21.23
2022-07-28T07:50:19.823Z,21.22
2022-07-28T07:52:46.499Z,21.24
2022-07-28T07:55:13.219Z,21.28
2022-07-28T07:57:40.521Z,21.29
2022-07-28T08:00:07.916Z,21.32
2022-07-28T08:02:54.612Z,21.37
2022-07-28T08:05:21.346Z,21.42
2022-07-28T08:08:02.035Z,21.49
2022-07-28T08:10:28.776Z,21.57
2022-07-28T08:12:55.514Z,21.65
2022-07-28T08:15:22.462Z,21.73
2022-07-28T08:17:49.222Z,21.80
2022-07-28T08:20:15.887Z,21.80
2022-07-28T08:22:54.294Z,21.85
2022-07-28T08:25:21.440Z,21.89
2022-07-28T08:27:48.377Z,21.92
2022-07-28T08:30:17.025Z,21.98
2022-07-28T08:32:56.745Z,22.05
2022-07-28T08:35:34.601Z,22.14
2022-07-28T08:38:03.705Z,22.22
2022-07-28T08:40:32.580Z,22.31
2022-07-28T08:43:06.886Z,22.37
2022-07-28T08:45:37.293Z,22.42
2022-07-28T08:48:09.498Z,22.47
2022-07-28T08:50:39.201Z,22.52
2022-07-28T08:53:06.767Z,22.57
2022-07-28T08:55:35.971Z,22.62
2022-07-28T08:58:03.953Z,22.66
2022-07-28T09:00:31.361Z,22.73
2022-07-28T09:02:58.819Z,22.79
2022-07-28T09:05:25.676Z,22.85
2022-07-28T09:07:55.488Z,22.91
2022-07-28T09:10:22.624Z,23.09
2022-07-28T09:12:49.491Z,23.10
2022-07-28T09:15:16.179Z,23.12
2022-07-28T09:17:43.111Z,23.17
2022-07-28T09:20:11.708Z,23.23
2022-07-28T09:23:01.521Z,23.29
2022-07-28T09:25:29.203Z,23.35
2022-07-28T09:27:56.320Z,23.41
2022-07-28T09:30:33.988Z,23.49
2022-07-28T09:33:43.248Z,23.55
2022-07-28T09:36:00.307Z,23.63
2022-07-28T09:38:40.577Z,23.65
2022-07-28T09:41:07.554Z,23.72
2022-07-28T09:43:39.890Z,23.76
2022-07-28T09:46:15.131Z,23.80
2022-07-28T09:48:54.315Z,23.84
2022-07-28T09:51:31.431Z,23.88
2022-07-28T09:54:11.580Z,23.89
2022-07-28T09:56:40.349Z,23.93
2022-07-28T09:59:08.187Z,23.94
2022-07-28T10:02:02.015Z,23.99
2022-07-28T10:04:34.970Z,24.03
2022-07-28T10:07:17.237Z,24.04
2022-07-28T10:09:44.515Z,24.08
2022-07-28T10:12:22.573Z,24.12
2022-07-28T10:14:51.781Z,24.18
2022-07-28T10:17:34.467Z,24.23
2022-07-28T10:20:05.233Z,24.31
2022-07-28T10:22:39.520Z,24.36
2022-07-28T10:25:10.568Z,24.40
2022-07-28T10:27:37.847Z,24.40
2022-07-28T10:30:06.146Z,24.44
2022-07-28T10:32:41.774Z,24.46
2022-07-28T10:35:18.039Z,24.48
2022-07-28T10:37:59.193Z,24.55
2022-07-28T10:40:29.717Z,24.61
2022-07-28T10:42:56.806Z,24.67
2022-07-28T10:45:32.617Z,24.69
2022-07-28T10:48:08.992Z,24.76
2022-07-28T10:50:39.468Z,24.78
2022-07-28T10:53:09.710Z,24.79
2022-07-28T10:55:38.328Z,24.93
2022-07-28T10:58:25.057Z,24.91
2022-07-28T11:00:56.489Z,24.93
2022-07-28T11:03:36.291Z,24.95
2022-07-28T11:06:32.086Z,24.99
2022-07-28T11:09:20.242Z,25.03
2022-07-28T11:11:49.963Z,25.10
2022-07-28T11:14:38.999Z,25.11
2022-07-28T11:17:10.882Z,25.16
2022-07-28T11:19:55.795Z,25.20
2022-07-28T11:22:32.194Z,25.25
2022-07-28T11:25:20.966Z,25.29
2022-07-28T11:27:52.164Z,25.35
2022-07-28T11:30:19.313Z,25.34
2022-07-28T11:32:55.117Z,25.33
2022-07-28T11:35:26.686Z,25.35
2022-07-28T11:38:02.654Z,25.36
2022-07-28T11:40:33.542Z,25.40
2022-07-28T11:43:36.405Z,25.45
2022-07-28T11:46:07.672Z,25.50
2022-07-28T11:48:37.180Z,25.53
2022-07-28T11:51:03.828Z,25.56
2022-07-28T11:53:50.466Z,25.58
2022-07-28T11:56:24.933Z,25.61
2022-07-28T11:58:59.483Z,25.65
2022-07-28T12:01:27.103Z,25.69
2022-07-28T12:03:56.602Z,25.73
2022-07-28T12:06:35.453Z,25.78
2022-07-28T12:09:02.506Z,25.82
2022-07-28T12:11:36.839Z,25.85
2022-07-28T12:14:15.243Z,25.91
2022-07-28T12:16:44.416Z,25.97
2022-07-28T12:19:14.771Z,25.99
2022-07-28T12:21:45.961Z,26.04
2022-07-28T12:24:29.451Z,26.13
2022-07-28T12:26:57.708Z,26.27
2022-07-28T12:29:32.082Z,26.36
2022-07-28T12:32:05.068Z,26.39
2022-07-28T12:34:34.943Z,26.42
2022-07-28T12:37:04.474Z,26.46
2022-07-28T12:39:34.280Z,26.47
2022-07-28T12:42:08.678Z,26.59
2022-07-28T12:44:37.168Z,26.59
2022-07-28T12:47:06.109Z,26.57
2022-07-28T12:49:32.813Z,26.63
2022-07-28T12:52:00.668Z,26.67
2022-07-28T12:54:35.824Z,26.68
2022-07-28T12:57:02.876Z,26.71
2022-07-28T12:59:34.169Z,26.72
2022-07-28T13:02:02.758Z,26.75
2022-07-28T13:04:47.060Z,26.77
2022-07-28T13:07:15.928Z,26.80
2022-07-28T13:10:00.606Z,26.83
2022-07-28T13:12:28.451Z,26.91
2022-07-28T13:14:56.754Z,27.01
2022-07-28T13:17:25.642Z,27.04
2022-07-28T13:20:06.727Z,27.11
2022-07-28T13:22:33.551Z,27.15
2022-07-28T13:25:00.373Z,27.19
2022-07-28T13:27:28.450Z,27.19
2022-07-28T13:29:55.723Z,27.22
2022-07-28T13:32:22.675Z,27.29
2022-07-28T13:34:49.701Z,27.34
2022-07-28T13:37:16.593Z,27.34
2022-07-28T13:39:43.873Z,27.30
2022-07-28T13:42:10.792Z,27.29
2022-07-28T13:44:39.926Z,27.28
2022-07-28T13:47:07.009Z,27.27
2022-07-28T13:49:34.671Z,27.27
2022-07-28T13:52:02.087Z,27.27
2022-07-28T13:54:28.775Z,27.26
2022-07-28T13:56:55.700Z,27.27
2022-07-28T13:59:24.062Z,27.28
2022-07-28T14:01:55.341Z,27.31
2022-07-28T14:04:22.388Z,27.32
2022-07-28T14:06:49.320Z,27.34
2022-07-28T14:09:18.869Z,27.35
2022-07-28T14:11:50.145Z,27.36
2022-07-28T14:14:25.286Z,27.35
2022-07-28T14:16:55.810Z,27.37
2022-07-28T14:19:38.521Z,27.39
2022-07-28T14:22:12.792Z,27.46
2022-07-28T14:24:41.370Z,27.53
2022-07-28T14:27:08.003Z,27.60
2022-07-28T14:29:37.499Z,27.64
2022-07-28T14:32:04.464Z,27.68
2022-07-28T14:34:31.150Z,27.72
2022-07-28T14:36:57.845Z,27.75
2022-07-28T14:39:27.419Z,27.78
2022-07-28T14:41:54.650Z,27.78
2022-07-28T14:44:24.765Z,27.80
2022-07-28T14:46:51.931Z,27.85
2022-07-28T14:49:18.944Z,27.90
2022-07-28T14:51:45.981Z,27.91
2022-07-28T14:54:13.240Z,27.91
2022-07-28T14:56:40.221Z,27.91
2022-07-28T14:59:06.879Z,27.92
2022-07-28T15:01:36.139Z,27.92
2022-07-28T15:04:04.737Z,27.92
2022-07-28T15:06:31.430Z,27.93
2022-07-28T15:08:58.532Z,27.97
2022-07-28T15:11:26.057Z,28.01
2022-07-28T15:13:52.794Z,28.02
2022-07-28T15:16:19.761Z,28.03
2022-07-28T15:18:46.475Z,28.05
2022-07-28T15:21:16.615Z,28.06
2022-07-28T15:23:44.172Z,28.07
2022-07-28T15:26:10.856Z,28.10
2022-07-28T15:28:38.358Z,28.15
2022-07-28T15:31:05.523Z,28.18
2022-07-28T15:33:39.883Z,28.18
2022-07-28T15:36:14.750Z,28.20
2022-07-28T15:38:41.601Z,28.18
2022-07-28T15:41:08.279Z,28.19
2022-07-28T15:43:34.963Z,28.18
2022-07-28T15:46:09.270Z,28.14
2022-07-28T15:48:37.402Z,28.13
2022-07-28T15:51:04.303Z,28.09
2022-07-28T15:53:31.145Z,28.08
2022-07-28T15:55:57.973Z,28.09
2022-07-28T15:58:26.447Z,28.10
2022-07-28T16:00:53.505Z,28.13
2022-07-28T16:03:22.715Z,28.14
2022-07-28T16:05:50.211Z,28.16
2022-07-28T16:08:18.245Z,28.14
2022-07-28T16:10:49.663Z,28.16
2022-07-28T16:13:20.860Z,28.19
2022-07-28T16:15:58.923Z,28.24
2022-07-28T16:18:25.585Z,28.24
2022-07-28T16:20:52.368Z,28.27
2022-07-28T16:23:19.048Z,28.31
2022-07-28T16:25:45.823Z,28.33
2022-07-28T16:28:12.878Z,28.35
2022-07-28T16:30:39.634Z,28.40
2022-07-28T16:33:07.926Z,28.45
2022-07-28T16:35:34.635Z,28.48
2022-07-28T16:38:05.320Z,28.48
2022-07-28T16:40:33.076Z,28.49
2022-07-28T16:43:03.447Z,28.51
2022-07-28T16:45:31.186Z,28.56
2022-07-28T16:47:58.388Z,28.59
2022-07-28T16:50:25.550Z,28.60
2022-07-28T16:52:55.632Z,28.54
2022-07-28T16:55:23.905Z,28.57
2022-07-28T16:57:52.167Z,28.59
2022-07-28T17:00:20.323Z,28.64
2022-07-28T17:02:46.981Z,28.67
2022-07-28T17:05:13.970Z,28.67
2022-07-28T17:07:45.907Z,28.67
2022-07-28T17:10:14.490Z,28.66
2022-07-28T17:12:41.530Z,28.67
2022-07-28T17:15:22.115Z,28.70
2022-07-28T17:17:50.998Z,28.73
2022-07-28T17:20:17.929Z,28.74
2022-07-28T17:22:45.230Z,28.76
2022-07-28T17:25:42.907Z,28.76
2022-07-28T17:27:58.834Z,28.80
2022-07-28T17:30:26.219Z,28.81
2022-07-28T17:32:58.141Z,28.81
2022-07-28T17:35:34.134Z,28.78
2022-07-28T17:38:02.617Z,28.72
2022-07-28T17:40:29.517Z,28.73
2022-07-28T17:42:57.482Z,28.77
2022-07-28T17:45:24.488Z,28.77
2022-07-28T17:47:51.590Z,28.71
2022-07-28T17:50:18.405Z,28.73
2022-07-28T17:52:45.717Z,28.77
2022-07-28T17:55:34.463Z,28.78
2022-07-28T17:58:14.151Z,28.74
2022-07-28T18:00:45.904Z,28.73
2022-07-28T18:03:12.894Z,28.73
2022-07-28T18:05:42.413Z,28.69
2022-07-28T18:08:09.926Z,28.67
2022-07-28T18:10:37.942Z,28.65
2022-07-28T18:13:05.592Z,28.62
2022-07-28T18:15:34.252Z,28.59
2022-07-28T18:18:02.148Z,28.55
2022-07-28T18:20:29.223Z,28.49
2022-07-28T18:22:59.398Z,28.43
2022-07-28T18:25:26.809Z,28.38
2022-07-28T18:27:55.015Z,28.32
2022-07-28T18:30:23.065Z,28.26
2022-07-28T18:32:49.994Z,28.20
2022-07-28T18:35:17.881Z,28.15
2022-07-28T18:37:45.927Z,28.12
2022-07-28T18:40:14.709Z,28.04
2022-07-28T18:42:41.778Z,27.98
2022-07-28T18:45:09.467Z,27.87
2022-07-28T18:47:37.497Z,27.77
2022-07-28T18:50:27.888Z,27.67
2022-07-28T18:52:58.597Z,27.62
2022-07-28T18:55:25.403Z,27.58
2022-07-28T18:57:52.112Z,27.49
2022-07-28T19:00:19.168Z,27.45
2022-07-28T19:02:46.008Z,27.39
2022-07-28T19:05:12.799Z,27.33
2022-07-28T19:07:39.553Z,27.26
2022-07-28T19:10:07.393Z,27.21
2022-07-28T19:12:34.298Z,27.16
2022-07-28T19:15:01.695Z,27.07
2022-07-28T19:17:28.770Z,26.97
2022-07-28T19:19:56.319Z,26.89
2022-07-28T19:22:23.946Z,26.84
2022-07-28T19:24:52.015Z,26.77
2022-07-28T19:27:20.216Z,26.74
2022-07-28T19:29:47.122Z,26.66
2022-07-28T19:32:13.871Z,26.59
2022-07-28T19:34:42.949Z,26.54
2022-07-28T19:37:10.116Z,26.53
2022-07-28T19:39:46.024Z,26.48
2022-07-28T19:42:12.879Z,26.41
2022-07-28T19:44:39.771Z,26.36
2022-07-28T19:47:06.483Z,26.32
2022-07-28T19:49:33.213Z,26.27
2022-07-28T19:51:59.884Z,26.32
2022-07-28T19:54:26.779Z,26.28
2022-07-28T19:56:54.060Z,26.19
2022-07-28T19:59:22.295Z,26.13
2022-07-28T20:01:50.721Z,26.05
2022-07-28T20:04:18.269Z,25.95
2022-07-28T20:06:45.128Z,25.87
2022-07-28T20:09:12.688Z,25.82
2022-07-28T20:11:40.761Z,25.76
2022-07-28T20:14:07.463Z,25.69
2022-07-28T20:16:34.264Z,25.65
2022-07-28T20:19:01.066Z,25.61
2022-07-28T20:21:27.761Z,25.56
2022-07-28T20:23:56.296Z,25.52
2022-07-28T20:26:26.080Z,25.51
2022-07-28T20:28:54.399Z,25.48
2022-07-28T20:31:21.304Z,25.43
2022-07-28T20:33:48.503Z,25.34
2022-07-28T20:36:15.227Z,25.26
2022-07-28T20:38:41.995Z,25.17
2022-07-28T20:41:08.868Z,25.13
2022-07-28T20:43:36.127Z,25.09
2022-07-28T20:46:05.390Z,25.05
2022-07-28T20:48:32.307Z,25.01
2022-07-28T20:50:58.989Z,25.06
2022-07-28T20:53:25.717Z,25.07
2022-07-28T20:55:52.379Z,25.07
2022-07-28T20:58:19.125Z,25.13
2022-07-28T21:00:45.907Z,25.05
2022-07-28T21:03:12.667Z,25.03
2022-07-28T21:05:39.495Z,24.98
2022-07-28T21:08:09.438Z,24.97
2022-07-28T21:10:43.546Z,24.99
2022-07-28T21:13:10.367Z,24.97
2022-07-28T21:15:37.055Z,24.90
2022-07-28T21:18:03.759Z,24.90
2022-07-28T21:20:30.510Z,24.90
2022-07-28T21:22:57.162Z,24.80
2022-07-28T21:25:23.947Z,24.69
2022-07-28T21:28:09.193Z,24.67
2022-07-28T21:30:35.874Z,24.55
2022-07-28T21:33:02.761Z,24.50
2022-07-28T21:35:29.896Z,24.49
2022-07-28T21:37:56.634Z,24.50
2022-07-28T21:40:24.156Z,24.47
2022-07-28T21:42:51.238Z,24.43
2022-07-28T21:45:18.220Z,24.41
2022-07-28T21:47:45.097Z,24.47
2022-07-28T21:50:11.889Z,24.45
2022-07-28T21:52:38.652Z,24.34
2022-07-28T21:55:07.086Z,24.27
2022-07-28T21:57:34.753Z,24.20
2022-07-28T22:00:02.206Z,24.12
2022-07-28T22:02:28.874Z,24.10
2022-07-28T22:04:55.959Z,24.00
2022-07-28T22:07:22.709Z,23.94
2022-07-28T22:09:49.421Z,23.86
2022-07-28T22:12:16.112Z,23.86
2022-07-28T22:14:42.785Z,23.82
2022-07-28T22:17:09.473Z,23.75
2022-07-28T22:19:37.223Z,23.76
2022-07-28T22:22:03.932Z,23.79
2022-07-28T22:24:30.725Z,23.73
2022-07-28T22:26:57.668Z,23.68
2022-07-28T22:29:24.783Z,23.60
2022-07-28T22:31:54.713Z,23.49
2022-07-28T22:34:24.174Z,23.43
2022-07-28T22:36:50.835Z,23.40
2022-07-28T22:39:17.542Z,23.38
2022-07-28T22:41:44.198Z,23.36
2022-07-28T22:44:14.038Z,23.33
2022-07-28T22:46:41.026Z,23.22
2022-07-28T22:49:07.903Z,23.17
2022-07-28T22:51:34.623Z,23.16
2022-07-28T22:54:01.333Z,23.17
2022-07-28T22:56:28.104Z,23.15
2022-07-28T22:59:03.900Z,23.12
2022-07-28T23:01:30.700Z,23.08
2022-07-28T23:03:58.600Z,23.01
2022-07-28T23:06:25.439Z,22.94
2022-07-28T23:08:52.279Z,22.94
2022-07-28T23:11:19.076Z,22.91
2022-07-28T23:13:47.234Z,22.88
2022-07-28T23:16:16.284Z,22.84
2022-07-28T23:18:44.254Z,22.80
2022-07-28T23:21:12.286Z,22.79
2022-07-28T23:23:39.119Z,22.73
2022-07-28T23:26:06.133Z,22.74
2022-07-28T23:28:33.041Z,22.70
2022-07-28T23:30:59.861Z,22.62
2022-07-28T23:33:55.561Z,22.60
2022-07-28T23:36:16.862Z,22.58
2022-07-28T23:38:53.675Z,22.58
2022-07-28T23:41:20.484Z,22.46
2022-07-28T23:43:47.261Z,22.36
2022-07-28T23:46:14.087Z,22.32
2022-07-28T23:48:41.042Z,22.31
2022-07-28T23:51:07.878Z,22.28
2022-07-28T23:53:37.493Z,22.24
2022-07-28T23:56:04.543Z,22.19
2022-07-28T23:58:31.315Z,22.19
